Terminal Aerodrome Forecast
Issued by NWS Huntsville, AL

Home | Current Version | Previous Version | Text Only | Print | Product List | Glossary On
Versions: 1 2 3 4 5 6 7 8 9 10 11 12 13 14 15 16 17 18 19 20 21 22 23 24 25 26 27 28 29 30 31 32
000
FTUS44 KHUN 040520
TAFHSV
TAF
KHSV 040520Z 0406/0506 19013KT P6SM VCSH BKN015
     FM041200 20015KT P6SM VCSH OVC009
     FM041800 23015G25KT P6SM VCSH OVC015
     FM042100 27015G25KT P6SM VCSH OVC015
      TEMPO 0421/0424 5SM -TSRA BR OVC015CB
     FM050000 34015G25KT 5SM RA BR OVC009=

USA.gov is the U.S. government's official web portal to all federal, state and local government web resources and services.